createdAt,value
2022-08-28T00:00:36.390Z,100445.31
2022-08-28T00:03:03.974Z,100440.66
2022-08-28T00:05:33.834Z,100435.91
2022-08-28T00:08:00.614Z,100439.81
2022-08-28T00:10:28.459Z,100435.63
2022-08-28T00:12:56.505Z,100436.59
2022-08-28T00:15:29.162Z,100433.28
2022-08-28T00:17:55.985Z,100441.41
2022-08-28T00:20:23.283Z,100435.00
2022-08-28T00:22:50.306Z,100432.22
2022-08-28T00:25:17.900Z,100429.44
2022-08-28T00:27:53.217Z,100434.69
2022-08-28T00:30:26.327Z,100431.97
2022-08-28T00:32:55.389Z,100434.47
2022-08-28T00:35:23.705Z,100436.78
2022-08-28T00:37:52.459Z,100436.75
2022-08-28T00:40:28.490Z,100429.75
2022-08-28T00:42:56.021Z,100437.22
2022-08-28T00:45:23.926Z,100428.72
2022-08-28T00:47:51.212Z,100434.41
2022-08-28T00:50:22.173Z,100426.00
2022-08-28T00:52:53.018Z,100425.00
2022-08-28T00:55:25.466Z,100425.50
2022-08-28T00:57:58.266Z,100428.50
2022-08-28T01:00:30.686Z,100424.94
2022-08-28T01:02:58.272Z,100419.25
2022-08-28T01:05:26.035Z,100420.53
2022-08-28T01:07:52.837Z,100417.88
2022-08-28T01:10:23.043Z,100425.09
2022-08-28T01:12:50.137Z,100425.59
2022-08-28T01:15:20.701Z,100420.13
2022-08-28T01:17:49.611Z,100421.94
2022-08-28T01:20:21.139Z,100428.13
2022-08-28T01:23:06.518Z,100430.13
2022-08-28T01:25:34.607Z,100420.91
2022-08-28T01:28:01.982Z,100422.31
2022-08-28T01:30:31.841Z,100417.47
2022-08-28T01:32:58.593Z,100417.81
2022-08-28T01:35:33.126Z,100418.38
2022-08-28T01:38:00.302Z,100416.91
2022-08-28T01:40:30.562Z,100412.28
2022-08-28T01:43:06.952Z,100417.47
2022-08-28T01:45:33.780Z,100420.72
2022-08-28T01:48:00.266Z,100413.00
2022-08-28T01:50:27.010Z,100413.34
2022-08-28T01:52:53.499Z,100406.94
2022-08-28T01:55:21.601Z,100416.72
2022-08-28T01:57:50.752Z,100414.72
2022-08-28T02:00:18.258Z,100413.91
2022-08-28T02:02:44.749Z,100412.44
2022-08-28T02:05:11.803Z,100407.72
2022-08-28T02:07:38.508Z,100417.16
2022-08-28T02:10:07.426Z,100414.25
2022-08-28T02:12:34.013Z,100405.88
2022-08-28T02:15:00.776Z,100402.69
2022-08-28T02:17:27.312Z,100406.53
2022-08-28T02:19:53.795Z,100410.31
2022-08-28T02:22:20.269Z,100413.41
2022-08-28T02:24:46.778Z,100407.88
2022-08-28T02:27:13.464Z,100409.75
2022-08-28T02:29:40.044Z,100408.88
2022-08-28T02:32:06.612Z,100402.88
2022-08-28T02:34:34.576Z,100408.47
2022-08-28T02:37:01.045Z,100405.53
2022-08-28T02:39:27.549Z,100407.91
2022-08-28T02:41:54.103Z,100402.50
2022-08-28T02:44:20.586Z,100414.38
2022-08-28T02:46:47.078Z,100413.47
2022-08-28T02:49:13.590Z,100418.06
2022-08-28T02:51:40.074Z,100411.53
2022-08-28T02:54:06.563Z,100412.25
2022-08-28T02:56:33.348Z,100411.88
2022-08-28T02:58:59.828Z,100406.97
2022-08-28T03:01:26.436Z,100400.06
2022-08-28T03:03:53.118Z,100403.41
2022-08-28T03:06:19.899Z,100398.13
2022-08-28T03:08:46.444Z,100394.78
2022-08-28T03:11:13.024Z,100392.22
2022-08-28T03:13:39.621Z,100402.97
2022-08-28T03:16:06.614Z,100400.19
2022-08-28T03:18:33.305Z,100400.88
2022-08-28T03:21:00.201Z,100405.44
2022-08-28T03:23:26.734Z,100404.31
2022-08-28T03:26:00.517Z,100402.78
2022-08-28T03:28:29.615Z,100404.59
2022-08-28T03:30:57.926Z,100394.38
2022-08-28T03:33:25.169Z,100402.81
2022-08-28T03:35:52.066Z,100395.56
2022-08-28T03:38:20.730Z,100401.25
2022-08-28T03:40:47.553Z,100398.63
2022-08-28T03:43:17.930Z,100401.19
2022-08-28T03:45:53.769Z,100408.00
2022-08-28T03:48:20.630Z,100405.88
2022-08-28T03:50:47.768Z,100407.03
2022-08-28T03:53:15.893Z,100400.25
2022-08-28T03:55:43.287Z,100404.53
2022-08-28T03:58:09.772Z,100401.91
2022-08-28T04:00:46.406Z,100394.28
2022-08-28T04:03:13.479Z,100400.84
2022-08-28T04:05:41.094Z,100406.00
2022-08-28T04:08:08.172Z,100403.69
2022-08-28T04:10:36.647Z,100401.91
2022-08-28T04:13:04.910Z,100407.75
2022-08-28T04:15:31.452Z,100403.50
2022-08-28T04:17:58.216Z,100409.63
2022-08-28T04:20:24.767Z,100409.97
2022-08-28T04:22:53.004Z,100416.59
2022-08-28T04:25:22.047Z,100413.50
2022-08-28T04:27:49.206Z,100409.63
2022-08-28T04:30:15.937Z,100407.72
2022-08-28T04:32:42.446Z,100410.47
2022-08-28T04:35:10.755Z,100405.56
2022-08-28T04:37:37.588Z,100408.91
2022-08-28T04:40:06.172Z,100410.03
2022-08-28T04:42:32.654Z,100407.34
2022-08-28T04:44:59.709Z,100401.97
2022-08-28T04:47:27.383Z,100410.66
2022-08-28T04:49:54.609Z,100401.84
2022-08-28T04:52:22.844Z,100404.06
2022-08-28T04:54:50.006Z,100405.53
2022-08-28T04:57:16.539Z,100409.34
2022-08-28T04:59:45.070Z,100410.09
2022-08-28T05:02:11.845Z,100418.81
2022-08-28T05:04:38.385Z,100414.59
2022-08-28T05:07:06.205Z,100415.31
2022-08-28T05:09:34.825Z,100421.00
2022-08-28T05:12:03.305Z,100416.28
2022-08-28T05:14:30.524Z,100424.25
2022-08-28T05:16:57.725Z,100422.13
2022-08-28T05:19:26.043Z,100425.06
2022-08-28T05:21:53.767Z,100428.63
2022-08-28T05:24:21.283Z,100433.78
2022-08-28T05:26:48.078Z,100436.69
2022-08-28T05:29:16.693Z,100432.25
2022-08-28T05:31:43.423Z,100435.00
2022-08-28T05:34:10.575Z,100437.34
2022-08-28T05:36:38.605Z,100431.38
2022-08-28T05:39:08.365Z,100439.16
2022-08-28T05:41:35.023Z,100442.28
2022-08-28T05:44:05.436Z,100437.50
2022-08-28T05:46:32.559Z,100433.16
2022-08-28T05:49:00.368Z,100437.50
2022-08-28T05:51:27.705Z,100449.53
2022-08-28T05:53:57.937Z,100437.22
2022-08-28T05:56:30.140Z,100438.38
2022-08-28T05:58:57.639Z,100443.00
2022-08-28T06:01:29.522Z,100445.75
2022-08-28T06:04:04.162Z,100447.22
2022-08-28T06:06:34.346Z,100446.56
2022-08-28T06:09:04.430Z,100446.38
2022-08-28T06:11:31.321Z,100439.34
2022-08-28T06:14:02.747Z,100447.91
2022-08-28T06:16:31.421Z,100445.19
2022-08-28T06:19:01.692Z,100443.94
2022-08-28T06:21:28.955Z,100440.69
2022-08-28T06:23:56.131Z,100437.81
2022-08-28T06:26:23.094Z,100435.06
2022-08-28T06:28:49.578Z,100439.59
2022-08-28T06:31:25.078Z,100438.81
2022-08-28T06:33:57.471Z,100433.31
2022-08-28T06:36:28.908Z,100446.47
2022-08-28T06:38:58.436Z,100445.88
2022-08-28T06:41:25.810Z,100449.56
2022-08-28T06:43:52.348Z,100450.47
2022-08-28T06:46:18.866Z,100446.25
2022-08-28T06:48:45.347Z,100440.53
2022-08-28T06:51:12.784Z,100445.06
2022-08-28T06:53:40.913Z,100446.03
2022-08-28T06:56:08.916Z,100454.31
2022-08-28T06:58:39.599Z,100448.50
2022-08-28T07:01:17.460Z,100453.56
2022-08-28T07:03:45.127Z,100456.34
2022-08-28T07:06:13.525Z,100454.75
2022-08-28T07:08:41.191Z,100454.41
2022-08-28T07:11:20.386Z,100450.53
2022-08-28T07:13:47.079Z,100448.72
2022-08-28T07:16:17.346Z,100453.09
2022-08-28T07:18:45.010Z,100458.09
2022-08-28T07:21:12.570Z,100455.81
2022-08-28T07:23:40.151Z,100450.03
2022-08-28T07:26:09.759Z,100452.56
2022-08-28T07:28:36.914Z,100450.66
2022-08-28T07:31:13.323Z,100456.75
2022-08-28T07:33:40.783Z,100462.19
2022-08-28T07:36:09.347Z,100453.66
2022-08-28T07:38:43.292Z,100454.66
2022-08-28T07:41:15.159Z,100458.13
2022-08-28T07:44:00.930Z,100455.88
2022-08-28T07:46:27.601Z,100453.81
2022-08-28T07:48:54.057Z,100463.41
2022-08-28T07:51:20.796Z,100467.31
2022-08-28T07:53:47.429Z,100463.44
2022-08-28T07:56:13.895Z,100456.03
2022-08-28T07:58:40.475Z,100460.47
2022-08-28T08:01:07.376Z,100465.16
2022-08-28T08:03:34.654Z,100461.63
2022-08-28T08:06:03.391Z,100467.19
2022-08-28T08:08:31.734Z,100462.22
2022-08-28T08:11:10.667Z,100469.72
2022-08-28T08:13:40.739Z,100467.16
2022-08-28T08:16:17.431Z,100469.59
2022-08-28T08:18:44.462Z,100468.69
2022-08-28T08:21:13.717Z,100453.22
2022-08-28T08:23:41.623Z,100463.47
2022-08-28T08:26:11.361Z,100464.47
2022-08-28T08:28:38.614Z,100470.81
2022-08-28T08:31:14.974Z,100470.31
2022-08-28T08:33:44.693Z,100465.81
2022-08-28T08:36:13.362Z,100470.91
2022-08-28T08:38:39.881Z,100474.78
2022-08-28T08:41:14.648Z,100478.38
2022-08-28T08:44:00.888Z,100471.56
2022-08-28T08:46:38.334Z,100472.44
2022-08-28T08:49:12.414Z,100474.16
2022-08-28T08:51:47.560Z,100467.16
2022-08-28T08:54:20.240Z,100473.22
2022-08-28T08:56:47.411Z,100469.25
2022-08-28T08:59:17.288Z,100472.72
2022-08-28T09:01:56.903Z,100473.06
2022-08-28T09:04:34.394Z,100472.53
2022-08-28T09:07:23.329Z,100472.53
2022-08-28T09:09:57.521Z,100476.72
2022-08-28T09:12:29.473Z,100470.69
2022-08-28T09:15:10.563Z,100473.16
2022-08-28T09:17:48.019Z,100466.41
2022-08-28T09:20:20.133Z,100474.44
2022-08-28T09:22:52.456Z,100468.63
2022-08-28T09:25:52.323Z,100472.47
2022-08-28T09:28:28.773Z,100467.00
2022-08-28T09:31:00.286Z,100464.81
2022-08-28T09:33:30.931Z,100474.50
2022-08-28T09:35:57.852Z,100472.50
2022-08-28T09:38:28.105Z,100476.22
2022-08-28T09:41:27.423Z,100471.22
2022-08-28T09:43:54.097Z,100460.88
2022-08-28T09:46:24.522Z,100462.00
2022-08-28T09:48:54.361Z,100460.94
2022-08-28T09:51:20.731Z,100462.16
2022-08-28T09:53:56.494Z,100462.19
2022-08-28T09:56:28.683Z,100458.28
2022-08-28T09:59:02.554Z,100460.22
2022-08-28T10:01:44.537Z,100462.75
2022-08-28T10:04:28.921Z,100462.97
2022-08-28T10:07:09.806Z,100467.84
2022-08-28T10:09:40.220Z,100462.41
2022-08-28T10:12:35.157Z,100455.22
2022-08-28T10:15:19.323Z,100453.84
2022-08-28T10:17:54.923Z,100459.34
2022-08-28T10:20:46.606Z,100455.25
2022-08-28T10:23:52.283Z,100453.56
2022-08-28T10:26:30.269Z,100455.56
2022-08-28T10:29:27.366Z,100453.88
2022-08-28T10:32:30.089Z,100453.13
2022-08-28T10:34:59.486Z,100454.25
2022-08-28T10:37:45.039Z,100456.63
2022-08-28T10:40:16.824Z,100455.13
2022-08-28T10:43:20.156Z,100460.47
2022-08-28T10:45:48.261Z,100455.31
2022-08-28T10:48:30.290Z,100459.97
2022-08-28T10:51:00.929Z,100455.84
2022-08-28T10:53:43.969Z,100451.16
2022-08-28T10:56:16.152Z,100450.03
2022-08-28T10:58:43.127Z,100451.44
2022-08-28T11:01:14.555Z,100457.63
2022-08-28T11:03:46.549Z,100447.88
2022-08-28T11:06:20.572Z,100450.31
2022-08-28T11:08:51.957Z,100456.00
2022-08-28T11:11:42.611Z,100454.69
2022-08-28T11:14:25.206Z,100457.56
2022-08-28T11:16:53.018Z,100449.78
2022-08-28T11:19:32.262Z,100454.22
2022-08-28T11:22:12.896Z,100452.56
2022-08-28T11:24:42.974Z,100454.59
2022-08-28T11:27:31.180Z,100453.56
2022-08-28T11:30:09.911Z,100458.25
2022-08-28T11:32:51.725Z,100458.53
2022-08-28T11:35:21.133Z,100460.03
2022-08-28T11:37:49.979Z,100465.94
2022-08-28T11:40:21.043Z,100464.50
2022-08-28T11:42:50.411Z,100473.22
2022-08-28T11:45:45.695Z,100471.38
2022-08-28T11:48:25.668Z,100490.16
2022-08-28T11:51:02.221Z,100488.16
2022-08-28T11:53:50.038Z,100482.50
2022-08-28T11:56:30.941Z,100484.81
2022-08-28T11:59:26.087Z,100487.47
2022-08-28T12:02:39.503Z,100492.38
2022-08-28T12:05:18.124Z,100491.16
2022-08-28T12:07:49.836Z,100486.97
2022-08-28T12:10:22.343Z,100489.56
2022-08-28T12:12:52.602Z,100494.47
2022-08-28T12:15:28.011Z,100485.78
2022-08-28T12:18:00.141Z,100487.38
2022-08-28T12:20:53.894Z,100495.28
2022-08-28T12:23:23.220Z,100497.25
2022-08-28T12:25:51.671Z,100496.34
2022-08-28T12:28:26.603Z,100496.78
2022-08-28T12:31:05.281Z,100497.28
2022-08-28T12:33:33.812Z,100506.59
2022-08-28T12:36:04.841Z,100511.84
2022-08-28T12:38:33.029Z,100507.19
2022-08-28T12:40:59.788Z,100508.06
2022-08-28T12:43:28.757Z,100502.56
2022-08-28T12:46:19.137Z,100495.94
2022-08-28T12:48:59.420Z,100491.97
2022-08-28T12:51:34.340Z,100494.88
2022-08-28T12:54:04.678Z,100487.16
2022-08-28T12:56:38.351Z,100497.16
2022-08-28T12:59:33.113Z,100489.09
2022-08-28T13:02:18.438Z,100499.88
2022-08-28T13:05:01.024Z,100499.00
2022-08-28T13:07:35.085Z,100494.97
2022-08-28T13:10:19.959Z,100501.31
2022-08-28T13:13:05.406Z,100514.19
2022-08-28T13:15:58.075Z,100517.66
2022-08-28T13:18:35.605Z,100511.88
2022-08-28T13:21:33.926Z,100510.31
2022-08-28T13:24:21.667Z,100517.94
2022-08-28T13:27:07.100Z,100513.19
2022-08-28T13:29:34.482Z,100514.91
2022-08-28T13:32:15.694Z,100519.38
2022-08-28T13:35:13.765Z,100529.09
2022-08-28T13:37:47.927Z,100535.00
2022-08-28T13:40:38.448Z,100525.78
2022-08-28T13:43:08.167Z,100523.06
2022-08-28T13:45:42.918Z,100521.56
2022-08-28T13:48:12.561Z,100524.84
2022-08-28T13:50:40.386Z,100511.47
2022-08-28T13:53:07.071Z,100515.94
2022-08-28T13:55:33.762Z,100514.56
2022-08-28T13:58:00.320Z,100504.78
2022-08-28T14:00:28.169Z,100509.69
2022-08-28T14:03:13.400Z,100510.56
2022-08-28T14:05:40.171Z,100535.81
2022-08-28T14:08:06.715Z,100547.13
2022-08-28T14:10:33.247Z,100558.81
2022-08-28T14:13:00.484Z,100553.44
2022-08-28T14:15:27.127Z,100543.84
2022-08-28T14:17:53.632Z,100534.75
2022-08-28T14:20:20.208Z,100525.38
2022-08-28T14:22:46.700Z,100510.22
2022-08-28T14:25:13.561Z,100503.66
2022-08-28T14:27:40.143Z,100507.75
2022-08-28T14:30:08.122Z,100518.59
2022-08-28T14:32:35.422Z,100521.38
2022-08-28T14:35:02.298Z,100531.09
2022-08-28T14:37:29.088Z,100521.84
2022-08-28T14:39:55.734Z,100516.88
2022-08-28T14:42:23.082Z,100521.22
2022-08-28T14:44:49.564Z,100517.78
2022-08-28T14:47:16.182Z,100520.84
2022-08-28T14:49:42.837Z,100531.31
2022-08-28T14:52:09.467Z,100539.13
2022-08-28T14:54:36.062Z,100543.84
2022-08-28T14:57:03.148Z,100543.25
2022-08-28T14:59:31.026Z,100548.88
2022-08-28T15:01:59.578Z,100543.97
2022-08-28T15:04:28.919Z,100539.84
2022-08-28T15:06:58.263Z,100544.41
2022-08-28T15:09:25.292Z,100530.69
2022-08-28T15:11:53.722Z,100526.25
2022-08-28T15:14:20.291Z,100516.97
2022-08-28T15:16:47.990Z,100512.22
2022-08-28T15:19:17.779Z,100509.69
2022-08-28T15:21:49.735Z,100525.44
2022-08-28T15:24:18.753Z,100524.19
2022-08-28T15:26:45.402Z,100522.63
2022-08-28T15:29:12.335Z,100531.09
2022-08-28T15:31:42.997Z,100532.53
2022-08-28T15:34:16.490Z,100524.78
2022-08-28T15:36:44.204Z,100521.47
2022-08-28T15:39:30.550Z,100531.63
2022-08-28T15:41:57.494Z,100533.84
2022-08-28T15:44:24.168Z,100530.31
2022-08-28T15:46:56.855Z,100529.84
2022-08-28T15:49:24.321Z,100526.09
2022-08-28T15:51:51.208Z,100526.44
2022-08-28T15:54:17.908Z,100523.63
2022-08-28T15:56:44.908Z,100528.34
2022-08-28T15:59:12.367Z,100534.72
2022-08-28T16:01:39.140Z,100536.13
2022-08-28T16:04:06.934Z,100532.47
2022-08-28T16:06:34.318Z,100535.47
2022-08-28T16:09:00.944Z,100533.34
2022-08-28T16:11:28.009Z,100532.00
2022-08-28T16:13:59.293Z,100537.50
2022-08-28T16:16:26.070Z,100540.13
2022-08-28T16:18:55.208Z,100544.63
2022-08-28T16:21:22.507Z,100548.72
2022-08-28T16:23:53.466Z,100543.34
2022-08-28T16:26:20.620Z,100557.25
2022-08-28T16:28:47.501Z,100554.88
2022-08-28T16:31:20.469Z,100554.97
2022-08-28T16:34:02.472Z,100559.28
2022-08-28T16:36:29.592Z,100564.47
2022-08-28T16:39:00.414Z,100563.91
2022-08-28T16:41:31.838Z,100562.28
2022-08-28T16:43:58.898Z,100561.94
2022-08-28T16:46:26.585Z,100569.75
2022-08-28T16:48:53.897Z,100568.72
2022-08-28T16:51:20.706Z,100578.88
2022-08-28T16:53:47.334Z,100580.59
2022-08-28T16:56:15.626Z,100581.03
2022-08-28T16:58:43.251Z,100580.63
2022-08-28T17:01:12.306Z,100585.69
2022-08-28T17:03:39.998Z,100588.31
2022-08-28T17:06:18.202Z,100596.13
2022-08-28T17:08:45.253Z,100594.88
2022-08-28T17:11:12.859Z,100598.59
2022-08-28T17:13:39.617Z,100597.56
2022-08-28T17:16:06.555Z,100596.13
2022-08-28T17:18:33.179Z,100588.09
2022-08-28T17:21:18.348Z,100587.41
2022-08-28T17:23:46.483Z,100591.53
2022-08-28T17:26:15.451Z,100587.41
2022-08-28T17:28:43.100Z,100580.50
2022-08-28T17:31:09.652Z,100582.41
2022-08-28T17:33:37.818Z,100590.13
2022-08-28T17:36:17.071Z,100592.56
2022-08-28T17:38:54.854Z,100588.16
2022-08-28T17:41:21.379Z,100590.84
2022-08-28T17:43:47.902Z,100588.78
2022-08-28T17:46:14.466Z,100597.25
2022-08-28T17:48:41.542Z,100600.16
2022-08-28T17:51:18.510Z,100597.53
2022-08-28T17:53:49.896Z,100599.00
2022-08-28T17:56:17.854Z,100606.91
2022-08-28T17:58:44.489Z,100606.91
2022-08-28T18:01:11.116Z,100610.56
2022-08-28T18:03:45.661Z,100608.97
2022-08-28T18:06:19.859Z,100599.03
2022-08-28T18:08:47.727Z,100603.09
2022-08-28T18:11:15.414Z,100610.72
2022-08-28T18:13:42.539Z,100616.75
2022-08-28T18:16:09.127Z,100609.22
2022-08-28T18:18:36.521Z,100611.56
2022-08-28T18:21:03.352Z,100623.13
2022-08-28T18:23:30.069Z,100627.31
2022-08-28T18:25:56.550Z,100628.41
2022-08-28T18:28:24.941Z,100638.84
2022-08-28T18:30:52.119Z,100633.31
2022-08-28T18:33:22.227Z,100637.56
2022-08-28T18:35:49.769Z,100629.16
2022-08-28T18:38:17.353Z,100637.22
2022-08-28T18:40:45.027Z,100630.84
2022-08-28T18:43:12.506Z,100640.97
2022-08-28T18:45:39.082Z,100642.91
2022-08-28T18:48:07.894Z,100638.00
2022-08-28T18:50:35.554Z,100639.53
2022-08-28T18:53:02.487Z,100636.28
2022-08-28T18:55:31.105Z,100638.88
2022-08-28T18:58:00.249Z,100638.03
2022-08-28T19:00:26.956Z,100633.19
2022-08-28T19:02:53.824Z,100637.41
2022-08-28T19:05:21.173Z,100635.09
2022-08-28T19:07:48.001Z,100635.13
2022-08-28T19:10:32.699Z,100640.97
2022-08-28T19:13:01.078Z,100634.91
2022-08-28T19:15:28.402Z,100639.81
2022-08-28T19:17:55.178Z,100635.66
2022-08-28T19:20:21.873Z,100643.22
2022-08-28T19:22:48.905Z,100635.75
2022-08-28T19:25:28.679Z,100642.03
2022-08-28T19:28:01.483Z,100640.69
2022-08-28T19:30:31.313Z,100643.31
2022-08-28T19:32:57.800Z,100642.63
2022-08-28T19:35:25.213Z,100649.72
2022-08-28T19:37:52.962Z,100649.38
2022-08-28T19:40:20.618Z,100646.31
2022-08-28T19:42:47.454Z,100657.94
2022-08-28T19:45:15.137Z,100662.91
2022-08-28T19:47:41.750Z,100661.69
2022-08-28T19:50:10.253Z,100665.41
2022-08-28T19:52:37.955Z,100664.94
2022-08-28T19:55:05.998Z,100664.19
2022-08-28T19:57:33.268Z,100664.53
2022-08-28T20:00:00.135Z,100663.50
2022-08-28T20:02:28.552Z,100664.44
2022-08-28T20:07:46.018Z,100658.91
2022-08-28T20:10:12.953Z,100661.13
2022-08-28T20:12:39.533Z,100669.97
2022-08-28T20:15:16.020Z,100672.22
2022-08-28T20:17:43.921Z,100671.72
2022-08-28T20:20:19.773Z,100667.97
2022-08-28T20:22:46.383Z,100668.56
2022-08-28T20:25:13.360Z,100663.50
2022-08-28T20:27:41.431Z,100657.94
2022-08-28T20:30:11.136Z,100665.00
2022-08-28T20:32:40.141Z,100662.56
2022-08-28T20:35:09.526Z,100662.91
2022-08-28T20:37:42.628Z,100666.19
2022-08-28T20:40:14.011Z,100662.31
2022-08-28T20:42:40.548Z,100657.66
2022-08-28T20:45:08.920Z,100666.13
2022-08-28T20:47:35.575Z,100667.25
2022-08-28T20:50:02.031Z,100664.03
2022-08-28T20:52:28.913Z,100668.09
2022-08-28T20:54:55.457Z,100664.56
2022-08-28T20:57:22.834Z,100657.47
2022-08-28T20:59:49.959Z,100656.28
2022-08-28T21:02:20.460Z,100660.47
2022-08-28T21:04:47.820Z,100662.38
2022-08-28T21:07:17.164Z,100657.47
2022-08-28T21:10:05.679Z,100656.72
2022-08-28T21:12:30.871Z,100651.66
2022-08-28T21:14:57.690Z,100650.13
2022-08-28T21:17:30.227Z,100644.44
2022-08-28T21:20:10.471Z,100656.25
2022-08-28T21:22:39.235Z,100660.06
2022-08-28T21:25:07.290Z,100655.47
2022-08-28T21:27:33.835Z,100655.06
2022-08-28T21:30:01.031Z,100655.53
2022-08-28T21:32:28.764Z,100661.34
2022-08-28T21:34:55.400Z,100665.38
2022-08-28T21:37:22.415Z,100664.00
2022-08-28T21:39:50.746Z,100666.97
2022-08-28T21:42:17.364Z,100667.34
2022-08-28T21:44:51.419Z,100672.75
2022-08-28T21:47:19.673Z,100677.34
2022-08-28T21:49:49.371Z,100676.22
2022-08-28T21:52:18.329Z,100677.66
2022-08-28T21:54:44.871Z,100683.97
2022-08-28T21:57:11.366Z,100672.78
2022-08-28T21:59:38.264Z,100685.69
2022-08-28T22:02:05.078Z,100695.00
2022-08-28T22:04:31.601Z,100704.63
2022-08-28T22:06:58.485Z,100724.75
2022-08-28T22:09:24.991Z,100725.44
2022-08-28T22:11:51.454Z,100736.38
2022-08-28T22:14:18.399Z,100738.31
2022-08-28T22:16:45.129Z,100741.34
2022-08-28T22:19:11.634Z,100736.78
2022-08-28T22:21:57.006Z,100741.66
2022-08-28T22:24:28.397Z,100745.63
2022-08-28T22:26:58.921Z,100739.56
2022-08-28T22:29:36.795Z,100731.28
2022-08-28T22:32:07.833Z,100739.50
2022-08-28T22:34:42.346Z,100734.97
2022-08-28T22:37:11.226Z,100732.50
2022-08-28T22:39:41.695Z,100733.25
2022-08-28T22:42:09.830Z,100725.78
2022-08-28T22:44:37.263Z,100734.09
2022-08-28T22:47:03.909Z,100739.91
2022-08-28T22:49:30.374Z,100742.56
2022-08-28T22:51:57.195Z,100742.13
2022-08-28T22:54:23.665Z,100738.44
2022-08-28T22:56:50.116Z,100737.53
2022-08-28T22:59:16.714Z,100737.81
2022-08-28T23:01:43.228Z,100734.13
2022-08-28T23:04:10.781Z,100725.00
2022-08-28T23:06:41.199Z,100731.47
2022-08-28T23:09:08.155Z,100727.16
2022-08-28T23:11:35.675Z,100727.03
2022-08-28T23:14:02.952Z,100729.03
2022-08-28T23:16:29.480Z,100739.00
2022-08-28T23:19:13.277Z,100747.09
2022-08-28T23:21:44.258Z,100751.72
2022-08-28T23:24:16.122Z,100756.72
2022-08-28T23:26:43.846Z,100766.69
2022-08-28T23:29:10.895Z,100760.59
2022-08-28T23:31:38.139Z,100766.88
2022-08-28T23:34:05.301Z,100769.16
2022-08-28T23:36:35.293Z,100765.25
2022-08-28T23:39:02.705Z,100767.16
2022-08-28T23:41:29.261Z,100767.47
2022-08-28T23:43:57.111Z,100763.72
2022-08-28T23:46:23.576Z,100769.88
2022-08-28T23:48:50.128Z,100765.31
2022-08-28T23:51:17.211Z,100764.97
2022-08-28T23:53:43.989Z,100757.00
2022-08-28T23:56:11.503Z,100745.09
2022-08-28T23:58:39.538Z,100739.41
